createdAt,value
2018-09-05T00:01:58.438Z,18.20
2018-09-05T00:04:26.942Z,18.17
2018-09-05T00:06:55.434Z,18.17
2018-09-05T00:09:23.941Z,18.13
2018-09-05T00:11:52.419Z,18.07
2018-09-05T00:14:20.950Z,17.98
2018-09-05T00:16:49.441Z,17.98
2018-09-05T00:19:17.913Z,17.97
2018-09-05T00:21:46.777Z,17.94
2018-09-05T00:24:15.226Z,17.88
2018-09-05T00:26:43.749Z,17.74
2018-09-05T00:29:12.289Z,17.83
2018-09-05T00:31:40.744Z,17.83
2018-09-05T00:34:09.192Z,17.75
2018-09-05T00:36:37.708Z,17.73
2018-09-05T00:39:07.830Z,17.74
2018-09-05T00:41:36.373Z,17.67
2018-09-05T00:44:04.910Z,17.65
2018-09-05T00:46:33.461Z,17.59
2018-09-05T00:49:02.272Z,17.54
2018-09-05T00:51:30.745Z,17.44
2018-09-05T00:53:59.357Z,17.47
2018-09-05T00:56:27.851Z,17.36
2018-09-05T00:58:56.362Z,17.40
2018-09-05T01:01:24.838Z,17.37
2018-09-05T01:03:53.358Z,17.36
2018-09-05T01:06:21.919Z,17.29
2018-09-05T01:08:50.381Z,17.27
2018-09-05T01:11:18.854Z,17.27
2018-09-05T01:13:47.337Z,17.16
2018-09-05T01:16:15.791Z,17.21
2018-09-05T01:18:44.329Z,17.23
2018-09-05T01:21:12.789Z,17.13
2018-09-05T01:23:41.370Z,17.06
2018-09-05T01:26:09.834Z,17.04
2018-09-05T01:28:38.339Z,16.95
2018-09-05T01:31:06.846Z,16.96
2018-09-05T01:33:35.896Z,16.97
2018-09-05T01:36:11.402Z,16.89
2018-09-05T01:38:39.993Z,16.93
2018-09-05T01:41:08.501Z,16.79
2018-09-05T01:43:37.097Z,16.88
2018-09-05T01:46:05.665Z,16.82
2018-09-05T01:48:34.176Z,16.83
2018-09-05T01:51:02.712Z,16.89
2018-09-05T01:53:31.190Z,16.89
2018-09-05T01:55:59.779Z,16.88
2018-09-05T01:58:28.393Z,16.81
2018-09-05T02:00:57.191Z,16.83
2018-09-05T02:03:25.717Z,16.78
2018-09-05T02:05:54.204Z,16.73
2018-09-05T02:08:22.701Z,16.75
2018-09-05T02:10:51.341Z,16.75
2018-09-05T02:13:19.837Z,16.69
2018-09-05T02:15:48.477Z,16.71
2018-09-05T02:18:16.992Z,16.56
2018-09-05T02:20:45.461Z,16.60
2018-09-05T02:23:13.969Z,16.65
2018-09-05T02:25:42.461Z,16.58
2018-09-05T02:28:10.932Z,16.58
2018-09-05T02:30:39.550Z,16.52
2018-09-05T02:33:08.036Z,16.51
2018-09-05T02:35:36.512Z,16.49
2018-09-05T02:38:05.448Z,16.48
2018-09-05T02:40:34.015Z,16.46
2018-09-05T02:43:02.387Z,16.39
2018-09-05T02:45:30.869Z,16.37
2018-09-05T02:47:59.374Z,16.41
2018-09-05T02:50:27.913Z,16.42
2018-09-05T02:52:56.378Z,16.39
2018-09-05T02:55:30.310Z,16.33
2018-09-05T02:57:58.784Z,16.30
2018-09-05T03:00:27.282Z,16.21
2018-09-05T03:02:56.010Z,16.09
2018-09-05T03:05:24.481Z,16.14
2018-09-05T03:07:52.980Z,16.08
2018-09-05T03:10:21.570Z,16.11
2018-09-05T03:12:50.093Z,16.06
2018-09-05T03:15:18.549Z,15.97
2018-09-05T03:17:47.047Z,15.99
2018-09-05T03:20:15.570Z,15.90
2018-09-05T03:22:44.017Z,15.98
2018-09-05T03:25:12.641Z,15.95
2018-09-05T03:27:41.552Z,15.91
2018-09-05T03:30:10.030Z,15.77
2018-09-05T03:32:38.583Z,15.80
2018-09-05T03:35:07.242Z,15.82
2018-09-05T03:37:35.785Z,15.85
2018-09-05T03:40:04.398Z,15.86
2018-09-05T03:42:32.831Z,15.83
2018-09-05T03:45:01.335Z,15.80
2018-09-05T03:47:30.110Z,15.77
2018-09-05T03:49:58.670Z,15.79
2018-09-05T03:52:27.138Z,15.75
2018-09-05T03:54:55.630Z,15.75
2018-09-05T03:57:24.141Z,15.76
2018-09-05T03:59:52.896Z,15.73
2018-09-05T04:02:21.433Z,15.74
2018-09-05T04:04:50.225Z,15.75
2018-09-05T04:07:18.677Z,15.68
2018-09-05T04:09:47.148Z,15.62
2018-09-05T04:12:15.807Z,15.61
2018-09-05T04:14:44.301Z,15.61
2018-09-05T04:17:12.787Z,15.59
2018-09-05T04:19:41.290Z,15.63
2018-09-05T04:22:09.861Z,15.55
2018-09-05T04:24:38.233Z,15.62
2018-09-05T04:27:06.971Z,15.51
2018-09-05T04:29:35.532Z,15.46
2018-09-05T04:32:04.224Z,15.42
2018-09-05T04:34:32.669Z,15.51
2018-09-05T04:37:01.256Z,15.53
2018-09-05T04:39:29.744Z,15.48
2018-09-05T04:41:58.327Z,15.40
2018-09-05T04:44:26.788Z,15.37
2018-09-05T04:46:55.377Z,15.34
2018-09-05T04:49:23.937Z,15.29
2018-09-05T04:51:52.409Z,15.36
2018-09-05T04:54:20.977Z,15.20
2018-09-05T04:56:49.455Z,15.23
2018-09-05T04:59:17.985Z,15.31
2018-09-05T05:01:46.501Z,15.23
2018-09-05T05:04:14.975Z,15.29
2018-09-05T05:06:43.509Z,15.31
2018-09-05T05:09:12.718Z,15.27
2018-09-05T05:11:41.921Z,15.33
2018-09-05T05:14:10.979Z,15.36
2018-09-05T05:16:39.483Z,15.37
2018-09-05T05:19:07.956Z,15.33
2018-09-05T05:21:36.445Z,15.42
2018-09-05T05:24:04.889Z,15.55
2018-09-05T05:26:33.392Z,15.53
2018-09-05T05:29:01.928Z,15.53
2018-09-05T05:31:30.428Z,15.54
2018-09-05T05:33:58.954Z,15.62
2018-09-05T05:36:27.651Z,15.68
2018-09-05T05:38:56.153Z,15.73
2018-09-05T05:41:24.685Z,15.75
2018-09-05T05:43:53.235Z,15.80
2018-09-05T05:46:21.821Z,15.87
2018-09-05T05:48:50.302Z,15.87
2018-09-05T05:51:18.771Z,16.04
2018-09-05T05:53:47.293Z,16.05
2018-09-05T05:56:15.738Z,16.09
2018-09-05T05:58:44.201Z,16.22
2018-09-05T06:01:12.753Z,16.25
2018-09-05T06:03:41.227Z,16.36
2018-09-05T06:06:09.764Z,16.39
2018-09-05T06:08:38.258Z,16.53
2018-09-05T06:11:06.929Z,16.62
2018-09-05T06:13:35.770Z,16.73
2018-09-05T06:16:04.249Z,16.80
2018-09-05T06:18:32.722Z,16.92
2018-09-05T06:21:01.330Z,17.03
2018-09-05T06:23:30.138Z,17.36
2018-09-05T06:25:58.617Z,18.43
2018-09-05T06:28:27.133Z,18.84
2018-09-05T06:30:56.092Z,17.89
2018-09-05T06:33:24.487Z,17.51
2018-09-05T06:35:52.987Z,17.43
2018-09-05T06:38:21.509Z,17.48
2018-09-05T06:40:50.165Z,17.53
2018-09-05T06:43:18.636Z,17.47
2018-09-05T06:45:47.159Z,17.51
2018-09-05T06:48:15.669Z,17.71
2018-09-05T06:50:44.168Z,17.72
2018-09-05T06:53:12.669Z,17.71
2018-09-05T06:55:41.138Z,17.74
2018-09-05T06:58:09.829Z,17.90
2018-09-05T07:00:38.357Z,18.00
2018-09-05T07:03:07.136Z,18.02
2018-09-05T07:05:35.704Z,18.16
2018-09-05T07:08:04.221Z,18.14
2018-09-05T07:10:32.714Z,18.30
2018-09-05T07:13:01.238Z,18.44
2018-09-05T07:15:29.732Z,18.54
2018-09-05T07:17:58.266Z,18.41
2018-09-05T07:20:26.758Z,18.32
2018-09-05T07:22:55.265Z,18.37
2018-09-05T07:25:23.795Z,18.49
2018-09-05T07:27:52.293Z,18.56
2018-09-05T07:30:20.899Z,18.62
2018-09-05T07:32:49.328Z,18.74
2018-09-05T07:35:18.156Z,18.67
2018-09-05T07:37:46.680Z,18.79
2018-09-05T07:40:15.303Z,18.94
2018-09-05T07:42:43.833Z,19.01
2018-09-05T07:45:12.381Z,19.25
2018-09-05T07:47:40.907Z,19.46
2018-09-05T07:50:09.409Z,19.48
2018-09-05T07:52:37.977Z,19.20
2018-09-05T07:55:06.799Z,19.35
2018-09-05T07:57:35.245Z,19.59
2018-09-05T08:00:03.748Z,19.74
2018-09-05T08:02:32.282Z,20.18
2018-09-05T08:05:00.885Z,20.40
2018-09-05T08:08:01.342Z,20.60
2018-09-05T08:10:29.857Z,20.48
2018-09-05T08:12:58.330Z,20.76
2018-09-05T08:15:26.970Z,21.17
2018-09-05T08:17:55.528Z,20.95
2018-09-05T08:20:24.046Z,21.03
2018-09-05T08:22:52.574Z,21.05
2018-09-05T08:25:21.047Z,21.27
2018-09-05T08:27:49.597Z,21.40
2018-09-05T08:30:18.098Z,21.50
2018-09-05T08:32:46.576Z,21.62
2018-09-05T08:35:15.270Z,21.64
2018-09-05T08:37:43.790Z,21.57
2018-09-05T08:40:12.159Z,21.59
2018-09-05T08:42:41.142Z,21.44
2018-09-05T08:45:09.954Z,21.32
2018-09-05T08:47:38.373Z,21.27
2018-09-05T08:50:07.029Z,21.61
2018-09-05T08:52:35.517Z,21.34
2018-09-05T08:55:04.153Z,21.50
2018-09-05T08:57:32.732Z,21.47
2018-09-05T09:00:01.266Z,21.70
2018-09-05T09:02:29.798Z,21.71
2018-09-05T09:04:58.325Z,21.81
2018-09-05T09:07:26.811Z,21.69
2018-09-05T09:09:55.703Z,21.82
2018-09-05T09:12:24.254Z,21.91
2018-09-05T09:14:52.897Z,22.04
2018-09-05T09:17:21.414Z,22.21
2018-09-05T09:19:49.905Z,22.23
2018-09-05T09:22:18.781Z,22.25
2018-09-05T09:24:47.411Z,22.38
2018-09-05T09:27:15.957Z,22.43
2018-09-05T09:29:44.877Z,22.47
2018-09-05T09:34:40.777Z,22.46
2018-09-05T09:37:09.261Z,22.55
2018-09-05T09:39:37.738Z,22.69
2018-09-05T09:42:06.690Z,22.88
2018-09-05T09:44:35.642Z,22.88
2018-09-05T09:47:04.141Z,22.88
2018-09-05T09:49:32.720Z,22.93
2018-09-05T09:52:06.524Z,22.93
2018-09-05T09:54:35.006Z,22.96
2018-09-05T09:57:03.581Z,23.16
2018-09-05T09:59:32.080Z,23.39
2018-09-05T10:02:05.869Z,23.31
2018-09-05T10:04:39.752Z,23.25
2018-09-05T10:07:13.588Z,23.32
2018-09-05T10:09:47.523Z,23.45
2018-09-05T10:12:21.248Z,23.49
2018-09-05T10:14:58.747Z,23.48
2018-09-05T10:17:32.827Z,23.41
2018-09-05T10:20:01.798Z,23.58
2018-09-05T10:22:30.833Z,23.65
2018-09-05T10:24:59.425Z,23.77
2018-09-05T10:27:28.450Z,23.65
2018-09-05T10:29:57.252Z,23.84
2018-09-05T10:32:26.097Z,23.85
2018-09-05T10:34:55.788Z,23.93
2018-09-05T10:37:24.281Z,24.09
2018-09-05T10:39:52.860Z,24.11
2018-09-05T10:42:21.437Z,23.87
2018-09-05T10:44:50.005Z,23.96
2018-09-05T10:47:18.484Z,23.99
2018-09-05T10:49:47.015Z,24.03
2018-09-05T10:52:15.469Z,24.17
2018-09-05T10:54:43.989Z,24.29
2018-09-05T10:57:12.458Z,24.24
2018-09-05T10:59:40.926Z,24.49
2018-09-05T11:02:09.469Z,24.46
2018-09-05T11:04:37.952Z,24.49
2018-09-05T11:07:06.541Z,24.29
2018-09-05T11:09:35.001Z,24.49
2018-09-05T11:12:03.460Z,24.65
2018-09-05T11:14:31.941Z,24.83
2018-09-05T11:17:00.429Z,24.88
2018-09-05T11:19:28.953Z,24.83
2018-09-05T11:21:57.424Z,24.81
2018-09-05T11:24:25.953Z,24.96
2018-09-05T11:26:54.422Z,25.13
2018-09-05T11:29:22.983Z,25.10
2018-09-05T11:31:52.030Z,25.04
2018-09-05T11:34:20.555Z,24.99
2018-09-05T11:36:49.099Z,25.11
2018-09-05T11:39:17.566Z,25.05
2018-09-05T11:41:46.054Z,25.28
2018-09-05T11:44:14.740Z,25.23
2018-09-05T11:46:43.276Z,25.31
2018-09-05T11:49:11.813Z,25.24
2018-09-05T11:51:40.450Z,25.25
2018-09-05T11:54:09.784Z,25.26
2018-09-05T11:56:38.399Z,25.26
2018-09-05T11:59:07.084Z,25.29
2018-09-05T12:01:35.626Z,25.39
2018-09-05T12:04:04.133Z,25.37
2018-09-05T12:06:32.653Z,25.49
2018-09-05T12:09:01.158Z,25.56
2018-09-05T12:11:29.629Z,25.62
2018-09-05T12:13:58.111Z,25.80
2018-09-05T12:16:26.596Z,25.74
2018-09-05T12:18:55.143Z,25.68
2018-09-05T12:21:23.817Z,25.88
2018-09-05T12:23:52.324Z,25.69
2018-09-05T12:26:21.377Z,25.71
2018-09-05T12:28:49.916Z,25.82
2018-09-05T12:31:18.397Z,25.64
2018-09-05T12:33:46.949Z,25.69
2018-09-05T12:36:15.464Z,25.73
2018-09-05T12:38:44.030Z,25.79
2018-09-05T12:41:12.556Z,25.85
2018-09-05T12:43:41.033Z,25.88
2018-09-05T12:46:09.585Z,26.00
2018-09-05T12:48:38.069Z,25.97
2018-09-05T12:51:06.677Z,26.10
2018-09-05T12:53:35.209Z,26.07
2018-09-05T12:56:03.697Z,26.09
2018-09-05T12:58:32.207Z,26.14
2018-09-05T13:01:00.802Z,26.31
2018-09-05T13:03:29.374Z,26.33
2018-09-05T13:05:57.894Z,26.35
2018-09-05T13:08:26.588Z,26.49
2018-09-05T13:10:55.065Z,26.48
2018-09-05T13:13:23.737Z,26.51
2018-09-05T13:15:52.316Z,26.73
2018-09-05T13:18:22.181Z,26.49
2018-09-05T13:20:50.747Z,26.47
2018-09-05T13:23:19.297Z,26.48
2018-09-05T13:25:47.801Z,26.53
2018-09-05T13:28:16.274Z,26.57
2018-09-05T13:30:44.756Z,26.57
2018-09-05T13:33:13.277Z,26.59
2018-09-05T13:35:41.877Z,26.55
2018-09-05T13:38:10.566Z,26.49
2018-09-05T13:40:39.304Z,26.42
2018-09-05T13:43:07.973Z,26.48
2018-09-05T13:45:36.472Z,26.57
2018-09-05T13:48:04.973Z,26.63
2018-09-05T13:50:33.585Z,26.24
2018-09-05T13:53:02.053Z,26.35
2018-09-05T13:55:30.568Z,26.54
2018-09-05T13:57:59.160Z,26.58
2018-09-05T14:00:27.688Z,26.53
2018-09-05T14:02:56.318Z,26.54
2018-09-05T14:05:24.803Z,26.55
2018-09-05T14:07:53.274Z,26.54
2018-09-05T14:10:21.768Z,26.48
2018-09-05T14:12:50.248Z,26.44
2018-09-05T14:15:18.790Z,26.54
2018-09-05T14:17:47.336Z,26.60
2018-09-05T14:20:15.888Z,26.63
2018-09-05T14:22:44.427Z,26.55
2018-09-05T14:25:13.105Z,26.35
2018-09-05T14:27:41.625Z,26.11
2018-09-05T14:30:10.117Z,26.01
2018-09-05T14:32:38.593Z,26.16
2018-09-05T14:35:07.166Z,26.16
2018-09-05T14:37:35.697Z,26.14
2018-09-05T14:40:04.293Z,26.07
2018-09-05T14:42:32.826Z,26.22
2018-09-05T14:45:01.355Z,26.15
2018-09-05T14:47:29.865Z,26.22
2018-09-05T14:49:58.581Z,26.29
2018-09-05T14:52:27.084Z,26.21
2018-09-05T14:54:55.608Z,26.44
2018-09-05T14:57:24.151Z,26.42
2018-09-05T14:59:52.776Z,26.41
2018-09-05T15:02:21.546Z,26.36
2018-09-05T15:04:50.183Z,26.44
2018-09-05T15:07:19.110Z,26.43
2018-09-05T15:09:47.774Z,26.47
2018-09-05T15:12:16.256Z,26.35
2018-09-05T15:14:44.791Z,26.48
2018-09-05T15:17:13.481Z,26.60
2018-09-05T15:19:42.146Z,26.42
2018-09-05T15:22:10.766Z,26.44
2018-09-05T15:24:39.285Z,26.42
2018-09-05T15:27:07.850Z,26.59
2018-09-05T15:29:36.389Z,26.55
2018-09-05T15:32:04.930Z,26.54
2018-09-05T15:34:33.389Z,26.79
2018-09-05T15:37:01.825Z,26.80
2018-09-05T15:39:30.504Z,27.00
2018-09-05T15:41:59.116Z,27.15
2018-09-05T15:44:33.118Z,27.17
2018-09-05T15:47:01.591Z,27.12
2018-09-05T15:49:30.082Z,27.09
2018-09-05T15:51:58.626Z,26.81
2018-09-05T15:54:27.616Z,26.75
2018-09-05T15:56:56.149Z,26.72
2018-09-05T15:59:24.837Z,26.75
2018-09-05T16:01:54.546Z,26.60
2018-09-05T16:04:23.165Z,26.77
2018-09-05T16:06:51.722Z,26.61
2018-09-05T16:09:20.234Z,26.35
2018-09-05T16:11:48.784Z,26.31
2018-09-05T16:14:17.343Z,26.16
2018-09-05T16:16:45.857Z,26.22
2018-09-05T16:19:14.344Z,26.21
2018-09-05T16:21:42.930Z,26.17
2018-09-05T16:24:11.376Z,26.04
2018-09-05T16:26:39.881Z,25.90
2018-09-05T16:29:08.493Z,25.71
2018-09-05T16:31:36.982Z,25.63
2018-09-05T16:34:05.512Z,25.50
2018-09-05T16:36:34.050Z,25.56
2018-09-05T16:39:02.650Z,25.41
2018-09-05T16:41:31.138Z,25.41
2018-09-05T16:43:59.691Z,25.25
2018-09-05T16:46:28.202Z,25.24
2018-09-05T16:48:56.683Z,25.11
2018-09-05T16:51:25.210Z,25.13
2018-09-05T16:53:53.682Z,25.04
2018-09-05T16:56:22.290Z,25.08
2018-09-05T16:58:50.869Z,24.96
2018-09-05T17:01:19.390Z,24.91
2018-09-05T17:03:47.923Z,24.87
2018-09-05T17:06:16.463Z,24.79
2018-09-05T17:08:45.002Z,24.75
2018-09-05T17:11:13.701Z,24.68
2018-09-05T17:13:42.073Z,24.58
2018-09-05T17:16:10.573Z,24.49
2018-09-05T17:18:39.079Z,24.38
2018-09-05T17:21:07.864Z,24.35
2018-09-05T17:23:36.381Z,24.41
2018-09-05T17:26:04.917Z,24.31
2018-09-05T17:28:33.601Z,24.18
2018-09-05T17:31:02.235Z,24.23
2018-09-05T17:33:30.762Z,24.14
2018-09-05T17:35:59.267Z,23.98
2018-09-05T17:38:27.830Z,24.00
2018-09-05T17:40:56.464Z,23.83
2018-09-05T17:43:24.917Z,23.96
2018-09-05T17:45:53.433Z,23.80
2018-09-05T17:48:22.029Z,23.69
2018-09-05T17:50:50.578Z,23.66
2018-09-05T17:53:19.178Z,23.52
2018-09-05T17:55:48.115Z,23.36
2018-09-05T17:58:16.729Z,23.46
2018-09-05T18:00:45.257Z,23.28
2018-09-05T18:03:13.782Z,23.18
2018-09-05T18:05:42.381Z,23.11
2018-09-05T18:08:10.933Z,23.15
2018-09-05T18:10:39.497Z,23.06
2018-09-05T18:13:08.105Z,23.03
2018-09-05T18:15:36.643Z,22.99
2018-09-05T18:18:05.350Z,23.03
2018-09-05T18:20:34.186Z,22.88
2018-09-05T18:23:02.715Z,22.93
2018-09-05T18:25:31.190Z,22.81
2018-09-05T18:27:59.789Z,22.79
2018-09-05T18:30:28.326Z,22.66
2018-09-05T18:32:56.812Z,22.74
2018-09-05T18:35:25.339Z,22.79
2018-09-05T18:37:53.852Z,22.63
2018-09-05T18:41:51.497Z,22.67
2018-09-05T18:44:19.994Z,22.54
2018-09-05T18:46:48.482Z,22.50
2018-09-05T18:49:17.125Z,22.40
2018-09-05T18:51:45.705Z,22.46
2018-09-05T18:54:14.173Z,22.52
2018-09-05T18:56:42.663Z,22.49
2018-09-05T18:59:11.213Z,22.44
2018-09-05T19:01:39.964Z,22.42
2018-09-05T19:04:08.828Z,22.43
2018-09-05T19:06:37.324Z,22.28
2018-09-05T19:09:08.545Z,22.14
2018-09-05T19:11:37.898Z,22.12
2018-09-05T19:14:06.393Z,22.14
2018-09-05T19:16:34.866Z,22.07
2018-09-05T19:19:03.425Z,21.97
2018-09-05T19:21:32.119Z,21.82
2018-09-05T19:24:00.608Z,21.81
2018-09-05T19:26:29.161Z,21.78
2018-09-05T19:28:57.677Z,21.75
2018-09-05T19:31:26.206Z,21.58
2018-09-05T19:33:54.797Z,21.56
2018-09-05T19:36:23.298Z,21.55
2018-09-05T19:38:52.163Z,21.57
2018-09-05T19:41:21.001Z,21.55
2018-09-05T19:43:49.561Z,21.51
2018-09-05T19:46:18.069Z,21.48
2018-09-05T19:48:46.967Z,21.37
2018-09-05T19:51:15.562Z,21.37
2018-09-05T19:53:44.138Z,21.30
2018-09-05T19:56:12.733Z,21.24
2018-09-05T19:58:41.672Z,21.30
2018-09-05T20:01:10.261Z,21.18
2018-09-05T20:03:38.760Z,21.14
2018-09-05T20:06:07.653Z,21.08
2018-09-05T20:08:36.247Z,21.03
2018-09-05T20:11:04.708Z,20.96
2018-09-05T20:13:33.657Z,20.96
2018-09-05T20:16:02.196Z,20.89
2018-09-05T20:18:30.793Z,20.79
2018-09-05T20:20:59.311Z,20.74
2018-09-05T20:23:28.218Z,20.68
2018-09-05T20:25:56.646Z,20.66
2018-09-05T20:28:25.124Z,20.59
2018-09-05T20:30:53.894Z,20.64
2018-09-05T20:33:22.611Z,20.56
2018-09-05T20:35:51.077Z,20.60
2018-09-05T20:38:19.846Z,20.56
2018-09-05T20:40:48.308Z,20.51
2018-09-05T20:43:16.754Z,20.49
2018-09-05T20:45:45.212Z,20.47
2018-09-05T20:48:13.719Z,20.39
2018-09-05T20:50:42.262Z,20.37
2018-09-05T20:53:10.792Z,20.38
2018-09-05T20:55:39.314Z,20.42
2018-09-05T20:58:07.881Z,20.37
2018-09-05T21:00:36.439Z,20.31
2018-09-05T21:03:04.937Z,20.26
2018-09-05T21:05:33.789Z,20.25
2018-09-05T21:08:02.320Z,20.22
2018-09-05T21:10:30.862Z,20.20
2018-09-05T21:12:59.454Z,20.16
2018-09-05T21:15:28.004Z,20.15
2018-09-05T21:17:56.542Z,20.18
2018-09-05T21:20:24.984Z,20.15
2018-09-05T21:22:53.474Z,20.11
2018-09-05T21:25:22.004Z,20.01
2018-09-05T21:27:50.549Z,20.11
2018-09-05T21:30:19.190Z,20.11
2018-09-05T21:32:47.677Z,20.04
2018-09-05T21:35:16.188Z,19.99
2018-09-05T21:37:44.708Z,19.90
2018-09-05T21:40:13.245Z,19.87
2018-09-05T21:42:41.881Z,19.91
2018-09-05T21:45:10.368Z,19.83
2018-09-05T21:47:38.840Z,19.80
2018-09-05T21:50:07.931Z,19.74
2018-09-05T21:52:36.452Z,19.69
2018-09-05T21:55:04.943Z,19.63
2018-09-05T21:57:33.460Z,19.60
2018-09-05T22:00:01.957Z,19.47
2018-09-05T22:02:30.442Z,19.44
2018-09-05T22:04:59.008Z,19.41
2018-09-05T22:07:27.623Z,19.36
2018-09-05T22:09:56.149Z,19.34
2018-09-05T22:12:24.745Z,19.34
2018-09-05T22:14:53.213Z,19.21
2018-09-05T22:17:21.754Z,19.17
2018-09-05T22:19:50.222Z,19.03
2018-09-05T22:22:19.088Z,19.08
2018-09-05T22:24:47.581Z,18.94
2018-09-05T22:27:16.056Z,18.90
2018-09-05T22:29:44.578Z,18.74
2018-09-05T22:32:13.231Z,18.79
2018-09-05T22:34:41.718Z,18.62
2018-09-05T22:37:10.237Z,18.67
2018-09-05T22:39:38.742Z,18.66
2018-09-05T22:42:07.270Z,18.52
2018-09-05T22:44:46.893Z,18.50
2018-09-05T22:47:26.845Z,18.50
2018-09-05T22:51:32.891Z,18.40
2018-09-05T22:54:22.112Z,18.27
2018-09-05T22:59:10.153Z,18.29
2018-09-05T23:01:51.871Z,18.12
2018-09-05T23:04:31.301Z,18.02
2018-09-05T23:08:21.205Z,18.05
2018-09-05T23:11:01.091Z,17.99
2018-09-05T23:13:40.954Z,17.98
2018-09-05T23:16:20.735Z,17.92
2018-09-05T23:19:37.893Z,17.93
2018-09-05T23:22:06.466Z,17.81
2018-09-05T23:24:34.962Z,18.01
2018-09-05T23:27:03.526Z,18.00
2018-09-05T23:29:32.056Z,17.96
2018-09-05T23:32:00.876Z,17.95
2018-09-05T23:34:29.454Z,17.91
2018-09-05T23:36:57.928Z,17.84
2018-09-05T23:39:26.430Z,17.97
2018-09-05T23:41:55.010Z,17.81
2018-09-05T23:44:23.538Z,17.78
2018-09-05T23:46:52.059Z,17.72
2018-09-05T23:49:20.598Z,17.74
2018-09-05T23:51:49.110Z,17.74
2018-09-05T23:54:17.671Z,17.77
2018-09-05T23:56:46.215Z,17.74
2018-09-05T23:59:14.727Z,17.58
